Terminal Aerodrome Forecast
Issued by NWS Albany, NY

Home | Current Version | Previous Version | Text Only | Print | Product List | Glossary On
Versions: 1 2 3 4 5 6 7 8 9 10 11 12 13 14 15 16 17 18 19 20 21 22
000
FTUS41 KALY 301120
TAFPOU
TAF
KPOU 301120Z 3012/3112 17005KT P6SM BKN020
      TEMPO 3012/3014 SCT020
     FM301400 21008G14KT P6SM FEW020 SCT050 BKN150
     FM302300 20010KT P6SM VCSH BKN050 PROB30 3023/3105 3SM TSRA BR
      OVC020CB
     FM310700 18006KT 5SM -SHRA BR OVC035=

USA.gov is the U.S. government's official web portal to all federal, state and local government web resources and services.